Roundhead, Ohio
Current Conditions -  °F | °C
As of 9:53 PM on Monday 20 Oct 2014 (Local Time) from KAOH Reporting Station
Overcast Overcast  
Wind Chill: 54°   Ceiling: 7000
Heat Index: 54°   Visibility: 8mi
Dew Point: 51°   Wind: 6mph
Humidity: 90%   Direction: 300°WNW
Pressure: 29.88"   Gusts: NA
Location:  40.56°N, 83.84°W
Report Text: KAOH 210153Z AUTO 30005KT 8SM OVC070 12/11 A2988 RMK AO2 SLP118 T01220106
Loading
Personal Weather Stations






























Interactive Weather Map New forecast layout! Learn more

10-Day Weather Forecast

Advertisements
Track Severe Weather on mobile